Time;durP1;ratioP1;P1;durP2;ratioP2;P2;SDS_P1;SDS_P2;PMS_P1;PMS_P2;Temp;Humidity;BMP_temperature;BMP_pressure;BME280_temperature;BME280_humidity;BME280_pressure;Samples;Min_cycle;Max_cycle;Signal;HPM_P1;HPM_P2
2023/07/09 00:02:04;;;;;;;5.03;3.50;;;24.80;51.40;;;;;;5019321;28;20192;-81
2023/07/09 00:04:33;;;;;;;4.03;3.47;;;24.70;51.40;;;;;;5019498;28;20200;-81
2023/07/09 00:07:02;;;;;;;4.75;3.80;;;24.70;51.40;;;;;;5020183;28;20250;-81
2023/07/09 00:09:29;;;;;;;5.10;3.80;;;24.70;51.40;;;;;;5019062;28;20699;-81
2023/07/09 00:11:56;;;;;;;4.00;3.60;;;24.70;51.40;;;;;;5019483;28;20588;-81
2023/07/09 00:14:23;;;;;;;4.05;3.30;;;24.70;51.50;;;;;;5020071;28;20651;-81
2023/07/09 00:16:50;;;;;;;4.60;3.60;;;24.70;51.50;;;;;;5019513;28;20196;-81
2023/07/09 00:19:23;;;;;;;5.10;3.30;;;24.70;51.50;;;;;;5018937;28;20624;-81
2023/07/09 00:21:52;;;;;;;5.63;3.65;;;24.50;51.40;;;;;;5020577;28;20192;-81
2023/07/09 00:24:20;;;;;;;4.82;3.50;;;24.60;51.60;;;;;;5023002;28;20235;-81
2023/07/09 00:26:48;;;;;;;5.10;3.80;;;24.60;51.50;;;;;;5023845;28;20211;-81
2023/07/09 00:29:17;;;;;;;3.60;3.30;;;24.60;51.60;;;;;;5040317;28;20220;-81
2023/07/09 00:31:43;;;;;;;4.53;3.75;;;24.60;51.60;;;;;;5024127;28;20224;-81
2023/07/09 00:34:13;;;;;;;3.80;3.15;;;24.60;51.60;;;;;;5025598;28;20204;-81
2023/07/09 00:36:43;;;;;;;5.45;3.78;;;24.50;51.60;;;;;;5025763;28;20192;-81
2023/07/09 00:39:14;;;;;;;4.22;3.38;;;24.60;51.70;;;;;;5024959;28;20224;-81
2023/07/09 00:41:42;;;;;;;3.65;3.33;;;24.50;51.70;;;;;;5025104;28;20264;-81
2023/07/09 00:44:24;;;;;;;3.97;3.42;;;24.50;51.80;;;;;;5025092;28;20196;-81
2023/07/09 00:47:17;;;;;;;3.92;3.53;;;24.50;51.80;;;;;;5008325;28;20199;-81
2023/07/09 00:49:46;;;;;;;3.40;3.08;;;24.50;51.80;;;;;;5024469;28;20216;-81
2023/07/09 00:52:22;;;;;;;4.00;3.40;;;24.50;51.80;;;;;;5040282;28;20567;-81
2023/07/09 00:54:49;;;;;;;3.78;3.30;;;24.50;51.80;;;;;;5041678;28;20232;-81
2023/07/09 00:57:17;;;;;;;4.05;3.25;;;24.50;51.80;;;;;;5023583;28;20573;-81
2023/07/09 00:59:45;;;;;;;5.68;3.65;;;24.40;51.80;;;;;;5022904;28;20226;-81
2023/07/09 01:02:12;;;;;;;5.10;3.20;;;24.50;51.90;;;;;;5006620;28;20318;-81
2023/07/09 01:04:41;;;;;;;3.90;3.40;;;24.50;51.90;;;;;;5022787;28;20207;-81
2023/07/09 01:07:09;;;;;;;3.58;3.25;;;24.40;51.90;;;;;;5022226;28;20201;-80
2023/07/09 01:09:41;;;;;;;4.38;3.67;;;24.50;52.00;;;;;;5005142;28;20219;-80
2023/07/09 01:12:09;;;;;;;3.75;3.35;;;24.40;51.90;;;;;;5018055;28;20752;-80
2023/07/09 01:14:37;;;;;;;3.45;3.15;;;24.40;51.90;;;;;;5019244;28;20578;-80
2023/07/09 01:17:07;;;;;;;3.92;3.17;;;24.40;52.00;;;;;;5020159;28;20681;-80
2023/07/09 01:19:42;;;;;;;3.50;3.20;;;24.40;52.00;;;;;;5020532;28;20215;-80
2023/07/09 01:22:12;;;;;;;4.05;3.55;;;24.40;52.00;;;;;;5020172;28;20184;-81
2023/07/09 01:24:57;;;;;;;4.18;3.33;;;24.40;52.00;;;;;;5020261;28;20200;-80
2023/07/09 01:27:26;;;;;;;3.80;3.40;;;24.40;52.00;;;;;;5019018;28;20204;-80
2023/07/09 01:29:53;;;;;;;4.75;3.30;;;24.40;52.10;;;;;;5018700;28;20216;-80
2023/07/09 01:32:21;;;;;;;4.13;3.30;;;24.30;52.00;;;;;;5018355;28;20558;-80
2023/07/09 01:34:49;;;;;;;3.67;3.30;;;24.30;52.10;;;;;;5017726;28;20208;-80
2023/07/09 01:37:19;;;;;;;4.55;3.40;;;24.30;52.20;;;;;;5017726;28;20196;-80
2023/07/09 01:39:46;;;;;;;4.20;3.70;;;24.30;52.20;;;;;;5020822;28;20224;-80
2023/07/09 01:42:14;;;;;;;3.47;3.17;;;24.30;52.20;;;;;;5027062;28;20206;-80
2023/07/09 01:44:41;;;;;;;3.45;3.15;;;24.30;52.20;;;;;;5026480;28;20215;-80
2023/07/09 01:47:08;;;;;;;3.75;3.40;;;24.30;52.20;;;;;;5011507;28;20634;-80
2023/07/09 01:49:36;;;;;;;4.13;3.30;;;24.30;52.20;;;;;;5024192;28;20279;-80
2023/07/09 01:52:04;;;;;;;3.50;3.20;;;24.30;52.20;;;;;;5026578;28;20224;-81
2023/07/09 01:54:33;;;;;;;3.97;3.17;;;24.20;52.20;;;;;;5024716;28;20200;-81
2023/07/09 01:57:14;;;;;;;5.32;3.40;;;24.20;52.30;;;;;;5016971;28;20219;-81
2023/07/09 01:59:44;;;;;;;4.32;2.85;;;24.20;52.30;;;;;;5017043;28;20212;-81
2023/07/09 02:02:15;;;;;;;4.18;3.33;;;24.20;52.30;;;;;;5017618;28;20680;-80
2023/07/09 02:04:42;;;;;;;3.63;3.33;;;24.20;52.40;;;;;;5017935;28;20192;-80
2023/07/09 02:07:09;;;;;;;4.55;3.53;;;24.20;52.40;;;;;;5018867;28;20196;-80
2023/07/09 02:09:38;;;;;;;4.65;3.20;;;24.20;52.40;;;;;;5018288;28;20311;-80
2023/07/09 02:12:05;;;;;;;3.85;3.53;;;24.20;52.40;;;;;;5017151;28;20192;-80
2023/07/09 02:14:32;;;;;;;4.07;3.50;;;24.20;52.40;;;;;;5017683;28;20287;-80
2023/07/09 02:17:00;;;;;;;4.15;3.33;;;24.20;52.50;;;;;;5018836;28;20219;-81
2023/07/09 02:19:27;;;;;;;3.72;3.20;;;24.10;52.40;;;;;;5018839;28;20249;-81
2023/07/09 02:21:54;;;;;;;4.30;3.53;;;24.10;52.50;;;;;;5036064;28;20196;-81
2023/07/09 02:24:24;;;;;;;4.07;3.63;;;24.10;52.50;;;;;;5020675;28;20204;-81
2023/07/09 02:26:52;;;;;;;4.97;3.58;;;24.10;52.50;;;;;;5037025;28;20204;-81
2023/07/09 02:29:19;;;;;;;3.80;3.42;;;24.10;52.50;;;;;;5020885;28;20220;-81
2023/07/09 02:31:46;;;;;;;5.57;3.53;;;24.10;52.50;;;;;;5021127;28;20207;-81
2023/07/09 02:34:14;;;;;;;4.20;3.42;;;24.10;52.60;;;;;;5021244;28;20212;-81
2023/07/09 02:36:42;;;;;;;3.92;3.45;;;24.10;52.60;;;;;;5038001;28;20204;-81
2023/07/09 02:39:10;;;;;;;4.10;3.45;;;24.00;52.40;;;;;;5021085;28;20216;-81
2023/07/09 02:41:36;;;;;;;4.95;3.63;;;24.00;52.50;;;;;;5039462;28;20188;-81
2023/07/09 02:44:05;;;;;;;3.78;3.35;;;24.10;52.60;;;;;;5021257;28;20200;-81
2023/07/09 02:46:33;;;;;;;4.65;3.50;;;24.00;52.60;;;;;;5021401;28;20204;-81
2023/07/09 02:49:05;;;;;;;5.45;3.42;;;24.10;52.70;;;;;;5005317;28;20235;-80
2023/07/09 02:51:34;;;;;;;3.40;3.10;;;24.00;52.60;;;;;;5021264;28;20264;-81
2023/07/09 02:54:02;;;;;;;3.60;3.30;;;24.00;52.60;;;;;;5020913;28;20635;-81
2023/07/09 02:56:29;;;;;;;5.00;3.55;;;24.00;52.60;;;;;;5023392;28;20200;-81
2023/07/09 02:58:56;;;;;;;3.92;3.40;;;24.00;52.60;;;;;;5025353;28;20224;-81
2023/07/09 03:01:26;;;;;;;4.03;3.58;;;24.00;52.60;;;;;;5024384;28;20663;-81
2023/07/09 03:03:54;;;;;;;3.72;3.42;;;24.00;52.60;;;;;;5024405;28;20184;-81
2023/07/09 03:06:21;;;;;;;5.18;3.65;;;23.90;52.70;;;;;;5022909;28;20204;-80
2023/07/09 03:08:48;;;;;;;3.85;3.53;;;24.00;52.90;;;;;;5019920;28;20243;-80
2023/07/09 03:11:16;;;;;;;4.13;3.15;;;24.00;53.10;;;;;;5021023;28;20655;-80
2023/07/09 03:13:42;;;;;;;4.03;3.63;;;23.90;52.90;;;;;;5021452;28;20752;-80
2023/07/09 03:16:09;;;;;;;4.78;3.80;;;23.90;53.10;;;;;;5022663;28;20225;-80
2023/07/09 03:18:37;;;;;;;4.05;3.70;;;24.00;53.20;;;;;;5022893;28;20274;-80
2023/07/09 03:21:04;;;;;;;4.95;3.25;;;23.90;53.00;;;;;;5022365;28;20651;-80
2023/07/09 03:23:32;;;;;;;4.60;3.40;;;24.00;53.10;;;;;;5022541;28;20188;-80
2023/07/09 03:25:59;;;;;;;4.57;3.75;;;24.00;53.10;;;;;;5022418;28;20625;-80
2023/07/09 03:28:26;;;;;;;3.95;3.30;;;24.00;53.00;;;;;;5021445;28;20212;-80
2023/07/09 03:30:55;;;;;;;3.83;3.47;;;24.00;52.80;;;;;;5021254;28;20203;-80
2023/07/09 03:33:22;;;;;;;3.70;3.28;;;24.00;52.80;;;;;;5038599;28;20239;-80
2023/07/09 03:35:50;;;;;;;4.50;3.65;;;24.00;52.80;;;;;;5025688;28;20256;-80
2023/07/09 03:38:18;;;;;;;3.92;3.53;;;24.10;52.80;;;;;;5058676;28;20204;-80
2023/07/09 03:40:45;;;;;;;3.92;3.53;;;24.10;52.60;;;;;;5042715;28;20200;-80
2023/07/09 03:43:12;;;;;;;3.90;3.30;;;24.10;52.60;;;;;;5036668;28;20262;-80
2023/07/09 03:45:39;;;;;;;5.13;3.28;;;24.20;52.80;;;;;;5021027;28;20208;-80
2023/07/09 03:48:06;;;;;;;4.57;3.58;;;24.20;52.60;;;;;;5022242;28;20207;-80
2023/07/09 03:50:33;;;;;;;4.38;3.45;;;24.20;52.60;;;;;;5030185;28;20204;-80
2023/07/09 03:53:01;;;;;;;4.15;3.75;;;24.20;52.50;;;;;;5029634;28;20284;-80
2023/07/09 03:55:29;;;;;;;3.92;3.50;;;24.20;52.50;;;;;;5028392;28;20204;-80
2023/07/09 03:57:56;;;;;;;4.10;3.70;;;24.30;52.50;;;;;;5027708;28;20665;-80
2023/07/09 04:00:24;;;;;;;3.78;3.47;;;24.20;52.40;;;;;;5026198;28;20216;-81
2023/07/09 04:02:52;;;;;;;3.90;3.50;;;24.30;52.50;;;;;;5024207;28;20203;-81
2023/07/09 04:05:19;;;;;;;5.47;3.55;;;24.30;52.40;;;;;;5002765;28;20211;-81
2023/07/09 04:07:46;;;;;;;4.28;3.50;;;24.30;52.50;;;;;;5026815;23;20228;-79
2023/07/09 04:10:15;;;;;;;4.13;3.33;;;24.30;52.40;;;;;;5035308;28;20623;-80
2023/07/09 04:12:42;;;;;;;4.63;3.67;;;24.30;52.40;;;;;;5036351;28;20294;-80
2023/07/09 04:15:10;;;;;;;3.88;3.50;;;24.30;52.40;;;;;;5037328;28;20200;-79
2023/07/09 04:17:37;;;;;;;4.50;3.78;;;24.30;52.40;;;;;;5034364;28;20208;-79
2023/07/09 04:20:07;;;;;;;4.10;3.60;;;24.30;52.40;;;;;;5034189;28;20224;-79
2023/07/09 04:22:34;;;;;;;4.85;3.90;;;24.30;52.40;;;;;;5018189;28;20239;-78
2023/07/09 04:25:02;;;;;;;3.53;3.20;;;24.30;52.40;;;;;;5033833;28;20694;-78
2023/07/09 04:27:31;;;;;;;5.47;3.60;;;24.30;52.40;;;;;;5017345;28;20199;-78
2023/07/09 04:29:58;;;;;;;4.10;3.70;;;24.30;52.50;;;;;;5034039;28;20216;-78
2023/07/09 04:32:25;;;;;;;4.75;4.07;;;24.30;52.50;;;;;;5033861;28;20258;-78
2023/07/09 04:34:53;;;;;;;4.70;3.50;;;24.30;52.50;;;;;;5035797;28;20254;-78
2023/07/09 04:37:20;;;;;;;3.92;3.50;;;24.30;52.50;;;;;;5059651;28;20255;-78
2023/07/09 04:39:48;;;;;;;4.20;3.80;;;24.30;52.50;;;;;;5059597;28;20222;-78
2023/07/09 04:42:16;;;;;;;5.05;3.92;;;24.30;52.50;;;;;;5059653;28;20173;-78
2023/07/09 04:44:45;;;;;;;4.53;3.60;;;24.30;52.60;;;;;;5059364;28;20577;-78
2023/07/09 04:47:12;;;;;;;4.60;3.75;;;24.30;52.50;;;;;;5053810;28;20210;-78
2023/07/09 04:49:40;;;;;;;3.67;3.38;;;24.40;52.60;;;;;;5033891;28;20277;-78
2023/07/09 04:52:10;;;;;;;3.90;3.40;;;24.50;52.60;;;;;;5017712;28;20346;-78
2023/07/09 04:54:40;;;;;;;4.00;3.60;;;24.60;52.50;;;;;;5033527;28;20219;-78
2023/07/09 04:57:07;;;;;;;4.10;3.55;;;24.70;52.20;;;;;;5033504;28;20619;-78
2023/07/09 04:59:35;;;;;;;3.83;3.42;;;24.90;51.90;;;;;;5033711;28;20219;-78
2023/07/09 05:02:03;;;;;;;4.15;3.50;;;25.00;51.60;;;;;;5033808;28;20231;-79
2023/07/09 05:04:31;;;;;;;4.20;3.80;;;25.10;51.30;;;;;;5033559;28;20210;-79
2023/07/09 05:06:58;;;;;;;4.65;3.40;;;25.30;51.00;;;;;;5017415;28;20204;-79
2023/07/09 05:09:25;;;;;;;4.00;3.67;;;25.40;50.70;;;;;;5033596;28;20594;-79
2023/07/09 05:11:52;;;;;;;3.50;3.20;;;25.50;50.50;;;;;;5033711;28;20291;-79
2023/07/09 05:14:19;;;;;;;3.65;3.10;;;25.60;50.10;;;;;;5033999;28;20216;-79
2023/07/09 05:16:46;;;;;;;3.95;3.55;;;25.70;50.20;;;;;;5034745;28;20204;-79
2023/07/09 05:19:14;;;;;;;4.28;3.60;;;25.80;49.90;;;;;;5032813;28;20702;-80
2023/07/09 05:21:41;;;;;;;4.20;3.80;;;25.90;49.70;;;;;;5032086;28;20203;-80
2023/07/09 05:24:08;;;;;;;4.28;3.60;;;26.00;49.40;;;;;;5033074;28;20184;-80
2023/07/09 05:26:35;;;;;;;4.57;3.65;;;26.10;49.30;;;;;;5016823;28;20219;-80
2023/07/09 05:29:03;;;;;;;3.95;3.55;;;26.20;49.20;;;;;;5016550;28;20629;-80
2023/07/09 05:31:31;;;;;;;4.03;3.63;;;26.30;49.00;;;;;;5034131;28;20601;-80
2023/07/09 05:33:59;;;;;;;4.05;3.65;;;26.30;48.70;;;;;;5033801;28;20220;-80
2023/07/09 05:36:28;;;;;;;4.57;3.40;;;26.50;48.60;;;;;;5018119;28;20200;-80
2023/07/09 05:38:55;;;;;;;4.60;3.42;;;26.50;48.40;;;;;;5033443;28;20224;-80
2023/07/09 05:41:23;;;;;;;4.60;3.53;;;26.60;48.20;;;;;;5033055;28;20204;-80
2023/07/09 05:43:50;;;;;;;4.25;3.47;;;26.70;48.10;;;;;;5032965;28;20196;-80
2023/07/09 05:46:18;;;;;;;3.97;3.58;;;26.70;47.90;;;;;;5032738;28;20562;-80
2023/07/09 05:48:45;;;;;;;3.70;3.38;;;26.80;47.80;;;;;;5016276;28;20250;-80
2023/07/09 05:51:12;;;;;;;4.10;3.70;;;26.90;47.60;;;;;;5032561;28;20207;-80
2023/07/09 05:53:41;;;;;;;3.83;3.42;;;26.90;47.50;;;;;;5032603;28;20215;-80
2023/07/09 05:56:08;;;;;;;3.92;3.60;;;27.00;47.40;;;;;;5033141;28;20205;-80
2023/07/09 05:58:36;;;;;;;4.28;3.80;;;27.10;47.30;;;;;;5033674;28;20219;-80
2023/07/09 06:01:02;;;;;;;3.78;3.40;;;27.10;47.20;;;;;;5016139;28;20290;-80
2023/07/09 06:03:29;;;;;;;4.75;3.38;;;27.20;47.10;;;;;;5032144;28;20199;-80
2023/07/09 06:05:59;;;;;;;3.97;3.67;;;27.20;47.00;;;;;;5032527;28;20618;-80
2023/07/09 06:08:27;;;;;;;4.07;3.67;;;27.30;46.90;;;;;;5032340;28;20246;-80
2023/07/09 06:10:57;;;;;;;4.50;3.78;;;27.30;46.70;;;;;;5032566;28;20249;-80
2023/07/09 06:13:24;;;;;;;4.65;3.58;;;27.40;46.70;;;;;;5032395;28;20192;-80
2023/07/09 06:15:52;;;;;;;3.72;3.42;;;27.40;46.60;;;;;;5032416;28;20199;-79
2023/07/09 06:18:20;;;;;;;4.22;3.80;;;27.50;46.50;;;;;;5032428;28;20720;-79
2023/07/09 06:20:50;;;;;;;3.83;3.50;;;27.50;46.40;;;;;;5032540;28;20654;-79
2023/07/09 06:23:17;;;;;;;4.32;3.55;;;27.50;46.30;;;;;;5032957;28;20666;-79
2023/07/09 06:25:47;;;;;;;4.13;3.60;;;27.60;46.20;;;;;;5032508;28;20647;-79
2023/07/09 06:28:16;;;;;;;4.05;3.20;;;27.70;46.20;;;;;;5032554;28;20258;-79
2023/07/09 06:30:43;;;;;;;5.75;3.88;;;27.70;46.00;;;;;;5034501;28;20202;-79
2023/07/09 06:33:11;;;;;;;4.00;3.60;;;27.70;45.80;;;;;;5038340;28;20246;-79
2023/07/09 06:35:37;;;;;;;4.93;3.30;;;27.80;45.70;;;;;;5048289;28;20210;-78
2023/07/09 06:38:05;;;;;;;4.18;3.25;;;27.90;45.50;;;;;;5059909;28;20206;-79
2023/07/09 06:40:32;;;;;;;4.07;3.58;;;27.90;45.40;;;;;;5060448;28;20179;-79
2023/07/09 06:42:59;;;;;;;4.40;3.50;;;27.90;45.30;;;;;;5060562;28;20215;-80
2023/07/09 06:45:34;;;;;;;3.92;3.40;;;28.00;45.10;;;;;;5042328;28;20241;-79
2023/07/09 06:48:01;;;;;;;4.72;4.18;;;28.00;45.10;;;;;;5040769;28;20669;-79
2023/07/09 06:50:29;;;;;;;4.93;3.90;;;28.00;45.00;;;;;;5025366;28;20285;-79
2023/07/09 06:52:55;;;;;;;4.35;3.50;;;28.10;44.90;;;;;;5040701;28;20638;-79
2023/07/09 06:55:23;;;;;;;4.70;3.67;;;28.20;44.80;;;;;;5040455;28;20278;-79
2023/07/09 06:57:50;;;;;;;3.58;3.28;;;28.10;44.80;;;;;;5040403;28;20211;-79
2023/07/09 07:00:17;;;;;;;5.03;4.10;;;28.20;44.60;;;;;;5039799;28;20306;-79
2023/07/09 07:02:46;;;;;;;4.25;3.85;;;28.20;44.60;;;;;;5040223;28;20195;-79
2023/07/09 07:05:13;;;;;;;5.53;3.63;;;28.30;44.50;;;;;;5040424;28;20199;-79
2023/07/09 07:07:40;;;;;;;3.80;3.40;;;28.30;44.40;;;;;;5039784;28;20273;-79
2023/07/09 07:10:08;;;;;;;4.68;3.50;;;28.30;44.30;;;;;;5040938;28;20215;-79
2023/07/09 07:12:43;;;;;;;4.63;3.55;;;28.40;44.30;;;;;;5040851;28;20290;-79
2023/07/09 07:15:10;;;;;;;3.75;3.40;;;28.40;44.20;;;;;;5040536;28;20204;-80
2023/07/09 07:17:37;;;;;;;4.30;3.90;;;28.40;44.10;;;;;;5041049;28;20215;-80
2023/07/09 07:20:07;;;;;;;3.45;3.10;;;28.40;44.10;;;;;;5041483;28;20219;-80
2023/07/09 07:22:37;;;;;;;5.00;3.80;;;28.40;44.10;;;;;;5037827;28;20570;-80
2023/07/09 07:25:05;;;;;;;4.20;3.53;;;28.50;44.00;;;;;;5036202;28;20307;-80
2023/07/09 07:27:33;;;;;;;4.40;3.70;;;28.50;44.00;;;;;;5020911;28;20644;-80
2023/07/09 07:30:00;;;;;;;4.60;3.65;;;28.50;43.90;;;;;;5035731;28;20226;-80
2023/07/09 07:32:28;;;;;;;5.00;3.42;;;28.60;43.90;;;;;;5038587;28;20231;-80
2023/07/09 07:34:55;;;;;;;4.20;3.80;;;28.60;43.90;;;;;;5037176;28;20223;-80
2023/07/09 07:37:23;;;;;;;3.60;3.30;;;28.60;43.90;;;;;;5036285;28;20203;-80
2023/07/09 07:39:50;;;;;;;4.20;3.50;;;28.60;43.90;;;;;;5036432;28;20211;-80
2023/07/09 07:42:17;;;;;;;5.72;3.80;;;28.50;43.80;;;;;;5034935;28;20191;-80
2023/07/09 07:44:44;;;;;;;3.88;3.50;;;28.60;43.70;;;;;;5035059;28;20620;-80
2023/07/09 07:47:13;;;;;;;4.28;3.88;;;28.60;43.70;;;;;;5035103;28;20199;-80
2023/07/09 07:49:40;;;;;;;4.10;3.58;;;28.60;43.80;;;;;;5034812;28;20623;-80
2023/07/09 07:52:08;;;;;;;3.88;3.28;;;28.60;43.70;;;;;;5034914;28;20622;-80
2023/07/09 07:54:37;;;;;;;4.70;4.00;;;28.60;44.30;;;;;;5034691;28;20219;-80
2023/07/09 07:57:05;;;;;;;3.90;3.55;;;28.70;43.80;;;;;;5035082;28;20199;-80
2023/07/09 07:59:34;;;;;;;4.78;3.90;;;28.80;43.70;;;;;;5035250;28;20721;-80
2023/07/09 08:02:01;;;;;;;5.20;3.70;;;28.80;43.50;;;;;;5035580;28;20662;-80
2023/07/09 08:04:28;;;;;;;5.00;3.78;;;28.90;43.40;;;;;;5036163;28;20196;-80
2023/07/09 08:06:56;;;;;;;5.18;3.55;;;29.00;43.30;;;;;;5035921;28;20213;-80
2023/07/09 08:09:24;;;;;;;4.50;3.47;;;29.00;43.20;;;;;;5035145;28;20223;-80
2023/07/09 08:11:52;;;;;;;4.20;3.80;;;29.10;43.10;;;;;;5036218;28;20654;-80
2023/07/09 08:14:19;;;;;;;4.22;3.53;;;29.10;43.10;;;;;;5034753;28;20215;-79
2023/07/09 08:16:46;;;;;;;4.18;3.65;;;29.10;43.10;;;;;;5018704;28;20554;-79
2023/07/09 08:19:13;;;;;;;4.45;3.90;;;29.20;43.20;;;;;;5034650;28;20230;-79
2023/07/09 08:21:40;;;;;;;4.28;3.75;;;29.20;43.10;;;;;;5034801;28;20200;-79
2023/07/09 08:24:07;;;;;;;3.85;3.30;;;29.20;43.00;;;;;;5034187;28;20200;-79
2023/07/09 08:26:37;;;;;;;5.25;3.97;;;29.30;43.00;;;;;;5034471;28;20195;-80
2023/07/09 08:29:06;;;;;;;5.07;3.95;;;29.30;42.90;;;;;;5033960;28;20223;-80
2023/07/09 08:31:33;;;;;;;4.88;3.75;;;29.30;42.90;;;;;;5034141;28;20677;-80
2023/07/09 08:34:00;;;;;;;4.40;3.80;;;29.30;42.90;;;;;;5017605;28;20646;-80
2023/07/09 08:36:28;;;;;;;4.20;3.67;;;29.30;42.70;;;;;;5033938;28;20203;-80
2023/07/09 08:38:55;;;;;;;4.13;3.72;;;29.30;42.70;;;;;;5033902;28;20224;-80
2023/07/09 08:41:31;;;;;;;4.75;4.07;;;29.40;42.70;;;;;;5017813;28;20211;-80
2023/07/09 08:44:02;;;;;;;3.92;3.63;;;29.40;42.70;;;;;;5002127;28;20198;-80
2023/07/09 08:46:35;;;;;;;4.35;3.78;;;29.40;42.60;;;;;;5017631;28;20199;-80
2023/07/09 08:49:03;;;;;;;4.88;4.35;;;29.40;42.60;;;;;;5034770;28;20252;-80
2023/07/09 08:51:34;;;;;;;4.03;3.63;;;29.50;42.50;;;;;;5035308;28;20208;-80
2023/07/09 08:54:01;;;;;;;5.40;3.97;;;29.50;42.50;;;;;;5033810;28;20192;-80
2023/07/09 08:56:31;;;;;;;5.55;4.03;;;29.50;42.50;;;;;;5034084;28;20203;-80
2023/07/09 08:59:00;;;;;;;5.32;4.10;;;29.50;42.40;;;;;;5034956;28;20229;-80
2023/07/09 09:01:29;;;;;;;6.47;4.93;;;29.50;42.30;;;;;;5033739;28;20199;-79
2023/07/09 09:04:00;;;;;;;6.30;4.60;;;29.60;42.80;;;;;;5033959;28;20210;-79
2023/07/09 09:06:28;;;;;;;7.68;4.38;;;29.60;42.80;;;;;;5033871;28;20188;-79
2023/07/09 09:09:02;;;;;;;6.65;4.40;;;29.60;43.10;;;;;;5033228;28;20282;-79
2023/07/09 09:11:35;;;;;;;5.55;4.47;;;29.60;42.90;;;;;;5033671;28;20193;-79
2023/07/09 09:14:04;;;;;;;5.28;4.38;;;29.60;42.90;;;;;;5033497;28;20195;-79
2023/07/09 09:16:33;;;;;;;6.63;5.00;;;29.60;43.10;;;;;;5033893;28;20581;-79
2023/07/09 09:19:02;;;;;;;6.07;4.32;;;29.60;43.10;;;;;;5034873;28;20211;-79
2023/07/09 09:21:32;;;;;;;5.97;3.90;;;29.60;43.40;;;;;;5033060;28;20199;-79
2023/07/09 09:24:02;;;;;;;6.15;4.57;;;29.70;43.50;;;;;;5033506;28;20196;-79
2023/07/09 09:26:31;;;;;;;5.82;4.57;;;29.70;43.20;;;;;;5033323;28;20226;-79
2023/07/09 09:28:58;;;;;;;9.07;4.63;;;29.70;43.40;;;;;;5032934;28;20219;-79
2023/07/09 09:31:26;;;;;;;5.38;3.90;;;29.70;43.60;;;;;;5034243;28;20207;-79
2023/07/09 09:33:53;;;;;;;5.88;4.63;;;29.70;42.90;;;;;;5033560;28;20207;-79
2023/07/09 09:36:22;;;;;;;15.80;9.63;;;29.60;42.80;;;;;;5033538;28;20222;-79
2023/07/09 09:38:50;;;;;;;92.53;60.80;;;29.70;43.10;;;;;;5033686;28;20250;-78
2023/07/09 09:41:19;;;;;;;51.10;30.73;;;29.70;44.20;;;;;;5037955;28;20202;-79
2023/07/09 09:43:47;;;;;;;27.67;17.08;;;29.60;44.20;;;;;;5043333;28;20601;-79
2023/07/09 09:46:18;;;;;;;18.70;12.02;;;29.70;43.50;;;;;;5036618;28;20226;-79
2023/07/09 09:48:46;;;;;;;11.93;8.00;;;29.70;43.50;;;;;;5033880;28;20342;-79
2023/07/09 09:51:13;;;;;;;8.35;5.60;;;29.70;43.00;;;;;;5033838;28;20195;-79
2023/07/09 09:53:46;;;;;;;8.10;6.05;;;29.70;42.90;;;;;;5035691;28;20565;-79
2023/07/09 09:56:18;;;;;;;6.85;5.45;;;29.70;42.90;;;;;;5034178;28;20204;-79
2023/07/09 09:58:45;;;;;;;8.77;5.45;;;29.70;42.50;;;;;;5034155;28;20238;-79
2023/07/09 10:01:16;;;;;;;6.60;4.10;;;29.60;42.20;;;;;;5033672;28;20257;-79
2023/07/09 10:03:44;;;;;;;6.20;3.97;;;29.60;41.80;;;;;;5035286;28;20544;-79
2023/07/09 10:06:15;;;;;;;4.65;3.83;;;29.70;41.70;;;;;;5038479;28;20233;-79
2023/07/09 10:08:54;;;;;;;6.38;4.20;;;29.60;41.60;;;;;;5040868;28;20285;-79
2023/07/09 10:11:27;;;;;;;4.18;3.70;;;29.50;41.30;;;;;;5038781;28;20201;-79
2023/07/09 10:13:55;;;;;;;5.45;3.92;;;29.50;41.40;;;;;;5038642;28;20192;-79
2023/07/09 10:16:25;;;;;;;3.95;3.53;;;29.50;41.10;;;;;;5038271;28;20567;-79
2023/07/09 10:18:55;;;;;;;6.43;3.90;;;29.40;41.30;;;;;;5038269;28;20218;-79
2023/07/09 10:21:26;;;;;;;4.45;3.63;;;29.40;41.40;;;;;;5039027;28;20226;-79
2023/07/09 10:23:59;;;;;;;4.60;3.60;;;29.40;41.30;;;;;;5022144;28;20207;-78
2023/07/09 10:26:29;;;;;;;5.30;3.67;;;29.40;41.10;;;;;;5039012;28;20198;-78
2023/07/09 10:29:35;;;;;;;4.25;3.50;;;29.40;40.90;;;;;;5039127;28;20203;-78
2023/07/09 10:32:07;;;;;;;4.53;3.40;;;29.40;40.70;;;;;;5032044;28;20199;-80
2023/07/09 10:34:39;;;;;;;4.15;3.60;;;29.40;40.60;;;;;;5037956;28;20192;-78
2023/07/09 10:37:17;;;;;;;5.38;3.63;;;29.40;40.90;;;;;;5038393;28;20194;-78
2023/07/09 10:39:47;;;;;;;5.53;3.20;;;29.40;40.30;;;;;;5038327;28;20563;-78
2023/07/09 10:42:17;;;;;;;4.80;3.70;;;29.40;40.40;;;;;;5037455;28;20800;-78
2023/07/09 10:44:44;;;;;;;4.80;3.50;;;29.30;39.90;;;;;;5021226;28;20202;-78
2023/07/09 10:47:20;;;;;;;4.70;3.50;;;29.30;39.90;;;;;;5037350;28;20666;-80
2023/07/09 10:49:47;;;;;;;5.38;3.63;;;29.30;39.70;;;;;;5036769;28;20301;-80
2023/07/09 10:52:20;;;;;;;5.65;3.80;;;29.30;39.80;;;;;;5037168;28;20203;-80
2023/07/09 10:54:54;;;;;;;4.32;3.40;;;29.30;40.00;;;;;;5037730;28;20198;-80
2023/07/09 10:57:26;;;;;;;4.65;3.40;;;29.20;39.90;;;;;;5038812;28;20206;-79
2023/07/09 10:59:52;;;;;;;5.80;3.40;;;29.20;40.40;;;;;;5039652;28;20230;-79
2023/07/09 11:02:22;;;;;;;4.40;3.47;;;29.10;40.50;;;;;;5039330;28;20214;-79
2023/07/09 11:04:50;;;;;;;4.85;3.65;;;29.10;40.70;;;;;;5038098;28;20669;-79
2023/07/09 11:07:27;;;;;;;5.20;3.75;;;29.10;40.70;;;;;;5037742;28;20647;-79
2023/07/09 11:09:56;;;;;;;4.18;3.00;;;29.10;40.70;;;;;;5037920;28;20219;-79
2023/07/09 11:12:25;;;;;;;4.65;3.53;;;29.10;40.60;;;;;;5038691;28;20263;-79
2023/07/09 11:14:53;;;;;;;5.20;3.60;;;29.00;40.80;;;;;;5038217;28;20207;-79
2023/07/09 11:17:21;;;;;;;3.45;3.15;;;29.00;40.80;;;;;;5037864;28;20717;-80
2023/07/09 11:19:49;;;;;;;5.18;3.75;;;29.00;41.00;;;;;;5039203;28;20230;-80
2023/07/09 11:22:18;;;;;;;3.95;3.50;;;29.00;41.20;;;;;;5038366;28;20199;-80
2023/07/09 11:24:50;;;;;;;3.92;3.40;;;29.00;41.60;;;;;;5039622;28;20261;-80
2023/07/09 11:27:20;;;;;;;4.55;3.42;;;28.90;41.40;;;;;;5037573;28;20219;-80
2023/07/09 11:29:47;;;;;;;4.28;3.63;;;28.90;41.40;;;;;;5036418;28;20227;-80
2023/07/09 11:32:19;;;;;;;5.22;3.75;;;28.90;41.30;;;;;;5036597;28;20249;-80
2023/07/09 11:34:47;;;;;;;3.75;3.33;;;28.90;41.30;;;;;;5037393;28;20192;-80
2023/07/09 11:37:15;;;;;;;3.60;3.20;;;28.90;41.30;;;;;;5037155;28;20274;-80
2023/07/09 11:39:46;;;;;;;5.60;3.88;;;28.90;41.50;;;;;;5036550;28;20226;-79
2023/07/09 11:42:31;;;;;;;4.32;3.47;;;28.90;41.90;;;;;;5020685;28;20199;-80
2023/07/09 11:45:02;;;;;;;5.55;3.50;;;28.80;41.60;;;;;;5036056;28;20201;-80
2023/07/09 11:47:30;;;;;;;4.65;3.75;;;28.80;41.60;;;;;;5036630;28;20195;-80
2023/07/09 11:49:59;;;;;;;4.45;3.50;;;28.80;41.70;;;;;;5037102;28;20270;-80
2023/07/09 11:52:28;;;;;;;4.95;3.90;;;28.80;41.60;;;;;;5038485;28;20203;-80
2023/07/09 11:54:55;;;;;;;5.07;3.28;;;28.70;41.20;;;;;;5037132;28;20246;-79
2023/07/09 11:57:22;;;;;;;3.90;3.50;;;28.70;41.90;;;;;;5036913;28;20223;-79
2023/07/09 11:59:51;;;;;;;5.55;3.80;;;28.70;41.90;;;;;;5038178;28;20226;-79
2023/07/09 12:02:19;;;;;;;4.35;3.55;;;28.60;41.70;;;;;;5037921;28;20201;-79
2023/07/09 12:04:49;;;;;;;4.70;3.75;;;28.70;41.90;;;;;;5035919;28;20290;-79
2023/07/09 12:07:16;;;;;;;6.55;3.60;;;28.60;41.30;;;;;;5035501;28;20203;-79
2023/07/09 19:38:18;;;;;;;9.07;7.05;;;27.90;47.60;;;;;;5033979;28;20672;-54
2023/07/09 19:40:45;;;;;;;7.75;5.72;;;27.80;47.70;;;;;;5036345;28;20664;-54
2023/07/09 19:43:13;;;;;;;7.05;4.95;;;27.70;47.80;;;;;;5019086;28;20227;-54
2023/07/09 19:45:43;;;;;;;6.40;4.55;;;27.70;48.10;;;;;;5037137;28;20598;-54
2023/07/09 19:48:12;;;;;;;6.95;4.25;;;27.70;48.20;;;;;;5017983;28;20203;-53
2023/07/09 19:50:39;;;;;;;7.07;4.00;;;27.70;47.30;;;;;;5018034;28;20196;-54
2023/07/09 19:53:18;;;;;;;4.85;3.60;;;27.60;47.40;;;;;;5017852;28;20277;-54
2023/07/09 19:55:45;;;;;;;7.95;4.00;;;27.60;48.40;;;;;;5017941;28;20192;-54
2023/07/09 19:58:12;;;;;;;5.20;3.80;;;27.50;48.20;;;;;;5017627;28;20590;-55
2023/07/09 20:00:39;;;;;;;6.63;3.78;;;27.50;48.20;;;;;;5036271;28;20198;-54
2023/07/09 20:03:09;;;;;;;4.88;3.53;;;27.40;48.30;;;;;;5039865;28;20257;-54
2023/07/09 20:05:36;;;;;;;6.07;3.65;;;27.30;48.20;;;;;;5017852;28;20234;-55
2023/07/09 20:08:10;;;;;;;5.55;4.10;;;27.20;48.30;;;;;;5017593;28;20217;-55
2023/07/09 20:10:39;;;;;;;5.90;4.00;;;27.20;48.30;;;;;;5035518;28;20237;-54
2023/07/09 20:13:08;;;;;;;5.20;4.25;;;27.10;48.20;;;;;;5017336;28;20617;-54
2023/07/09 20:15:35;;;;;;;4.50;3.35;;;27.10;48.60;;;;;;5017630;28;20234;-54
2023/07/09 20:18:02;;;;;;;6.00;4.18;;;27.00;48.70;;;;;;5017747;28;20211;-54
2023/07/09 20:20:29;;;;;;;4.55;3.90;;;27.00;48.70;;;;;;5034906;28;20270;-54
2023/07/09 20:22:56;;;;;;;6.15;4.32;;;26.90;49.00;;;;;;5035101;28;20699;-54